Fruitland, Maryland
Current Conditions -  °F | °C
As of 9:14 PM on Wednesday 22 Oct 2014 (Local Time) from KSBY Reporting Station
Light Rain Light Rain  
Wind Chill: 55°   Ceiling: 1500
Heat Index: 55°   Visibility: 10mi
Dew Point: 50°   Wind: 15mph
Humidity: 82%   Direction: 320°NW
Pressure: 29.83"   Gusts: 25mph
Location:  38.32°N, 75.62°W
Report Text: KSBY 230114Z 32013G22KT 10SM -RA OVC015 13/10 A2983 RMK AO2 P0000
Loading
Personal Weather Stations






























Interactive Weather Map
Tropical Storm Tracking
New forecast layout! Learn more

10-Day Weather Forecast

Advertisements
Track Severe Weather on mobile